createdAt,value
2022-10-30T00:00:40.545Z,26.10
2022-10-30T00:03:13.407Z,23.35
2022-10-30T00:08:08.142Z,32.05
2022-10-30T00:10:34.866Z,24.58
2022-10-30T00:13:02.545Z,31.58
2022-10-30T00:15:29.295Z,22.45
2022-10-30T00:17:56.479Z,25.30
2022-10-30T00:20:23.670Z,29.02
2022-10-30T00:22:50.460Z,34.53
2022-10-30T00:25:17.424Z,28.90
2022-10-30T00:27:44.160Z,28.95
2022-10-30T00:30:11.753Z,31.92
2022-10-30T00:32:38.538Z,27.02
2022-10-30T00:35:05.600Z,27.88
2022-10-30T00:37:32.343Z,26.77
2022-10-30T00:39:59.052Z,25.77
2022-10-30T00:42:30.284Z,23.30
2022-10-30T00:44:57.047Z,21.55
2022-10-30T00:47:35.728Z,26.42
2022-10-30T00:50:19.358Z,29.65
2022-10-30T00:52:56.959Z,27.05
2022-10-30T00:55:31.851Z,27.02
2022-10-30T00:58:01.458Z,25.35
2022-10-30T01:00:29.409Z,29.40
2022-10-30T01:02:57.668Z,22.25
2022-10-30T01:05:27.684Z,23.35
2022-10-30T01:07:54.699Z,21.80
2022-10-30T01:10:22.327Z,25.20
2022-10-30T01:12:51.395Z,22.08
2022-10-30T01:15:23.347Z,26.20
2022-10-30T01:18:13.391Z,20.50
2022-10-30T01:21:00.747Z,24.55
2022-10-30T01:23:27.455Z,20.02
2022-10-30T01:26:10.015Z,27.67
2022-10-30T01:29:03.049Z,26.45
2022-10-30T01:31:38.683Z,23.30
2022-10-30T01:34:17.603Z,22.27
2022-10-30T01:37:13.772Z,25.13
2022-10-30T01:39:41.538Z,25.13
2022-10-30T01:42:31.090Z,21.65
2022-10-30T01:44:58.294Z,25.60
2022-10-30T01:47:47.531Z,26.08
2022-10-30T01:50:37.639Z,21.42
2022-10-30T01:53:28.034Z,20.83
2022-10-30T01:55:54.715Z,25.63
2022-10-30T01:58:59.993Z,21.30
2022-10-30T02:01:29.017Z,26.27
2022-10-30T02:03:55.982Z,26.45
2022-10-30T02:06:22.941Z,28.60
2022-10-30T02:08:49.664Z,24.00
2022-10-30T02:11:17.058Z,32.17
2022-10-30T02:13:44.085Z,20.10
2022-10-30T02:16:11.082Z,20.90
2022-10-30T02:18:37.911Z,27.20
2022-10-30T02:21:04.837Z,26.77
2022-10-30T02:23:32.944Z,24.52
2022-10-30T02:25:59.840Z,25.08
2022-10-30T02:28:26.700Z,25.73
2022-10-30T02:30:53.515Z,22.20
2022-10-30T02:33:20.364Z,24.40
2022-10-30T02:35:47.126Z,18.92
2022-10-30T02:38:13.854Z,23.13
2022-10-30T02:40:40.574Z,20.63
2022-10-30T02:43:07.368Z,20.55
2022-10-30T02:45:36.947Z,20.30
2022-10-30T02:48:04.019Z,23.17
2022-10-30T02:50:30.955Z,26.95
2022-10-30T02:52:59.542Z,20.08
2022-10-30T02:55:26.642Z,20.63
2022-10-30T02:57:54.565Z,23.05
2022-10-30T03:00:21.367Z,25.05
2022-10-30T03:02:48.252Z,22.88
2022-10-30T03:05:15.056Z,24.60
2022-10-30T03:07:41.838Z,23.48
2022-10-30T03:10:09.001Z,22.83
2022-10-30T03:12:35.735Z,22.27
2022-10-30T03:15:02.634Z,18.20
2022-10-30T03:17:30.094Z,20.65
2022-10-30T03:19:56.948Z,20.55
2022-10-30T03:22:23.785Z,21.80
2022-10-30T03:24:50.494Z,23.45
2022-10-30T03:27:17.503Z,24.08
2022-10-30T03:29:44.212Z,23.88
2022-10-30T03:32:11.743Z,22.45
2022-10-30T03:34:38.740Z,25.15
2022-10-30T03:37:05.545Z,19.90
2022-10-30T03:39:32.279Z,25.75
2022-10-30T03:41:59.123Z,20.08
2022-10-30T03:44:25.861Z,23.48
2022-10-30T03:46:52.620Z,22.20
2022-10-30T03:49:19.331Z,19.27
2022-10-30T03:51:46.074Z,21.50
2022-10-30T03:54:12.834Z,23.15
2022-10-30T03:56:39.663Z,17.67
2022-10-30T03:59:06.389Z,19.40
2022-10-30T04:01:33.295Z,18.38
2022-10-30T04:04:00.143Z,23.73
2022-10-30T04:06:27.010Z,22.42
2022-10-30T04:08:55.397Z,20.00
2022-10-30T04:11:22.244Z,22.25
2022-10-30T04:13:48.999Z,19.38
2022-10-30T04:16:15.807Z,24.73
2022-10-30T04:18:42.573Z,24.00
2022-10-30T04:21:09.267Z,19.50
2022-10-30T04:23:36.123Z,20.55
2022-10-30T04:26:02.933Z,21.50
2022-10-30T04:28:29.652Z,21.30
2022-10-30T04:30:56.639Z,21.10
2022-10-30T04:33:23.425Z,22.02
2022-10-30T04:35:50.146Z,15.13
2022-10-30T04:38:19.634Z,19.55
2022-10-30T04:40:46.596Z,19.08
2022-10-30T04:43:14.104Z,18.30
2022-10-30T04:45:41.633Z,18.30
2022-10-30T04:48:16.577Z,15.02
2022-10-30T04:50:44.119Z,19.08
2022-10-30T04:53:16.622Z,18.55
2022-10-30T04:55:44.545Z,18.58
2022-10-30T04:58:12.496Z,21.75
2022-10-30T05:00:39.530Z,14.43
2022-10-30T05:03:06.424Z,17.80
2022-10-30T05:05:33.211Z,15.30
2022-10-30T05:08:00.420Z,17.85
2022-10-30T05:10:27.701Z,18.40
2022-10-30T05:12:54.593Z,16.92
2022-10-30T05:15:21.809Z,15.27
2022-10-30T05:17:53.000Z,18.88
2022-10-30T05:20:19.835Z,17.95
2022-10-30T05:22:46.818Z,17.17
2022-10-30T05:25:13.632Z,16.48
2022-10-30T05:27:40.377Z,18.80
2022-10-30T05:30:07.760Z,18.85
2022-10-30T05:32:34.425Z,18.52
2022-10-30T05:35:01.151Z,20.85
2022-10-30T05:37:28.095Z,18.70
2022-10-30T05:39:54.920Z,19.05
2022-10-30T05:42:21.872Z,21.15
2022-10-30T05:45:00.964Z,18.45
2022-10-30T05:47:28.736Z,20.98
2022-10-30T05:49:55.500Z,20.75
2022-10-30T05:52:22.338Z,20.45
2022-10-30T05:54:49.104Z,17.00
2022-10-30T05:57:15.857Z,19.10
2022-10-30T05:59:42.633Z,21.77
2022-10-30T06:02:09.449Z,17.33
2022-10-30T06:04:36.285Z,17.92
2022-10-30T06:07:02.988Z,15.77
2022-10-30T06:09:29.878Z,17.27
2022-10-30T06:11:56.715Z,24.38
2022-10-30T06:14:23.495Z,20.17
2022-10-30T06:16:50.316Z,20.55
2022-10-30T06:19:18.776Z,22.48
2022-10-30T06:21:46.326Z,21.30
2022-10-30T06:24:13.697Z,22.48
2022-10-30T06:26:40.922Z,22.08
2022-10-30T06:29:07.917Z,20.33
2022-10-30T06:31:34.705Z,22.25
2022-10-30T06:34:01.426Z,24.65
2022-10-30T06:36:28.217Z,27.95
2022-10-30T06:38:55.375Z,24.50
2022-10-30T06:41:26.073Z,35.30
2022-10-30T06:43:57.191Z,23.52
2022-10-30T06:46:27.054Z,35.38
2022-10-30T06:48:57.509Z,164.25
2022-10-30T06:51:24.530Z,37.17
2022-10-30T06:53:51.733Z,63.22
2022-10-30T06:56:18.536Z,59.83
2022-10-30T06:58:45.300Z,53.20
2022-10-30T07:01:12.136Z,44.42
2022-10-30T07:03:38.813Z,47.97
2022-10-30T07:06:05.924Z,39.67
2022-10-30T07:08:32.729Z,53.05
2022-10-30T07:10:59.550Z,62.88
2022-10-30T07:13:26.297Z,43.75
2022-10-30T07:15:53.161Z,67.82
2022-10-30T07:18:20.034Z,77.25
2022-10-30T07:20:46.828Z,68.93
2022-10-30T07:23:13.596Z,102.63
2022-10-30T07:25:40.349Z,66.28
2022-10-30T07:28:07.152Z,55.50
2022-10-30T07:30:33.909Z,81.03
2022-10-30T07:33:02.977Z,48.08
2022-10-30T07:35:30.899Z,55.03
2022-10-30T07:38:05.668Z,61.72
2022-10-30T07:40:33.243Z,63.42
2022-10-30T07:43:01.953Z,61.72
2022-10-30T07:45:29.817Z,73.28
2022-10-30T07:47:57.086Z,103.88
2022-10-30T07:50:24.656Z,79.72
2022-10-30T07:52:51.426Z,52.85
2022-10-30T07:55:18.166Z,62.75
2022-10-30T07:57:45.028Z,97.70
2022-10-30T08:00:14.380Z,50.03
2022-10-30T08:02:42.111Z,90.72
2022-10-30T08:05:09.811Z,55.40
2022-10-30T08:07:38.016Z,68.18
2022-10-30T08:10:06.477Z,61.47
2022-10-30T08:12:34.510Z,55.05
2022-10-30T08:15:01.746Z,93.82
2022-10-30T08:17:29.009Z,55.17
2022-10-30T08:19:57.114Z,71.55
2022-10-30T08:22:24.470Z,108.72
2022-10-30T08:24:51.468Z,109.85
2022-10-30T08:27:18.788Z,107.22
2022-10-30T08:29:45.529Z,76.95
2022-10-30T08:32:12.314Z,73.72
2022-10-30T08:34:39.176Z,110.40
2022-10-30T08:37:07.935Z,92.85
2022-10-30T08:39:34.666Z,83.88
2022-10-30T08:42:01.476Z,81.20
2022-10-30T08:44:28.255Z,63.42
2022-10-30T08:46:55.034Z,81.38
2022-10-30T08:49:21.801Z,53.60
2022-10-30T08:51:48.649Z,51.78
2022-10-30T08:54:15.365Z,58.15
2022-10-30T08:56:42.557Z,62.15
2022-10-30T08:59:09.276Z,71.25
2022-10-30T09:01:36.834Z,106.97
2022-10-30T09:04:04.263Z,60.95
2022-10-30T09:06:31.940Z,28.15
2022-10-30T09:08:58.789Z,64.65
2022-10-30T09:11:25.721Z,62.63
2022-10-30T09:13:52.539Z,47.03
2022-10-30T09:16:19.310Z,52.97
2022-10-30T09:18:46.078Z,55.88
2022-10-30T09:21:12.831Z,65.18
2022-10-30T09:23:39.576Z,90.13
2022-10-30T09:26:06.800Z,85.90
2022-10-30T09:28:33.645Z,89.57
2022-10-30T09:31:01.809Z,126.53
2022-10-30T09:33:28.978Z,135.93
2022-10-30T09:35:55.904Z,94.35
2022-10-30T09:38:22.701Z,144.30
2022-10-30T09:40:52.332Z,105.85
2022-10-30T09:43:46.237Z,150.85
2022-10-30T09:46:12.983Z,155.18
2022-10-30T09:51:49.454Z,120.40
2022-10-30T09:54:44.203Z,205.20
2022-10-30T09:57:30.911Z,157.32
2022-10-30T10:00:10.495Z,224.05
2022-10-30T10:03:06.366Z,134.95
2022-10-30T10:05:44.890Z,114.60
2022-10-30T10:08:19.364Z,131.65
2022-10-30T10:10:52.827Z,123.15
2022-10-30T10:13:44.843Z,76.35
2022-10-30T10:16:14.399Z,86.88
2022-10-30T10:19:06.121Z,155.25
2022-10-30T10:21:37.378Z,112.47
2022-10-30T10:24:11.902Z,125.97
2022-10-30T10:26:44.691Z,49.95
2022-10-30T10:29:22.255Z,73.25
2022-10-30T10:32:17.725Z,85.82
2022-10-30T10:34:56.425Z,78.60
2022-10-30T10:37:45.739Z,38.78
2022-10-30T10:40:38.882Z,42.85
2022-10-30T10:43:30.272Z,41.30
2022-10-30T10:46:29.615Z,67.93
2022-10-30T10:48:56.304Z,45.25
2022-10-30T10:51:29.964Z,90.93
2022-10-30T10:54:20.069Z,77.93
2022-10-30T10:56:49.540Z,61.20
2022-10-30T10:59:21.260Z,91.93
2022-10-30T11:02:10.947Z,150.57
2022-10-30T11:04:45.542Z,215.10
2022-10-30T11:07:26.341Z,168.85
2022-10-30T11:09:54.839Z,342.80
2022-10-30T11:12:33.880Z,320.98
2022-10-30T11:17:45.542Z,343.67
2022-10-30T11:20:18.585Z,381.02
2022-10-30T11:22:51.341Z,366.83
2022-10-30T11:25:27.031Z,194.85
2022-10-30T11:28:00.484Z,163.90
2022-10-30T11:30:28.915Z,55.13
2022-10-30T11:32:57.320Z,39.53
2022-10-30T11:35:25.357Z,17.65
2022-10-30T11:38:13.291Z,9.40
2022-10-30T11:40:46.546Z,11.05
2022-10-30T11:43:18.904Z,6.70
2022-10-30T11:45:45.826Z,10.25
2022-10-30T11:48:28.049Z,8.77
2022-10-30T11:51:02.460Z,7.35
2022-10-30T11:53:38.626Z,10.98
2022-10-30T11:56:22.251Z,8.18
2022-10-30T11:58:55.602Z,9.90
2022-10-30T12:01:39.206Z,11.23
2022-10-30T12:04:24.210Z,11.77
2022-10-30T12:07:18.536Z,9.90
2022-10-30T12:09:47.067Z,5.80
2022-10-30T12:12:19.810Z,8.05
2022-10-30T12:14:46.695Z,9.13
2022-10-30T12:17:16.829Z,8.73
2022-10-30T12:19:53.531Z,9.35
2022-10-30T12:22:33.985Z,10.85
2022-10-30T12:25:04.326Z,11.95
2022-10-30T12:27:36.750Z,9.63
2022-10-30T12:30:10.871Z,12.00
2022-10-30T12:33:04.356Z,10.93
2022-10-30T12:35:40.199Z,8.52
2022-10-30T12:38:31.942Z,9.52
2022-10-30T12:41:17.597Z,10.63
2022-10-30T12:43:52.127Z,9.88
2022-10-30T12:46:30.334Z,11.02
2022-10-30T12:49:13.352Z,10.13
2022-10-30T12:52:01.388Z,9.93
2022-10-30T12:54:39.574Z,10.40
2022-10-30T12:57:17.021Z,8.02
2022-10-30T12:59:56.718Z,10.27
2022-10-30T13:02:38.316Z,14.27
2022-10-30T13:05:32.505Z,8.75
2022-10-30T13:08:11.166Z,6.97
2022-10-30T13:10:46.066Z,11.77
2022-10-30T13:13:22.096Z,9.43
2022-10-30T13:15:52.529Z,10.50
2022-10-30T13:18:22.196Z,6.57
2022-10-30T13:20:56.179Z,8.30
2022-10-30T13:23:34.173Z,9.65
2022-10-30T13:26:06.861Z,9.70
2022-10-30T13:28:44.108Z,7.45
2022-10-30T13:31:21.728Z,6.38
2022-10-30T13:34:16.075Z,9.45
2022-10-30T13:36:57.869Z,10.18
2022-10-30T13:42:27.806Z,8.55
2022-10-30T13:45:06.369Z,8.07
2022-10-30T13:48:05.002Z,10.88
2022-10-30T13:51:01.925Z,9.15
2022-10-30T13:53:33.459Z,12.35
2022-10-30T13:56:00.539Z,10.93
2022-10-30T13:58:46.288Z,10.77
2022-10-30T14:01:37.215Z,11.27
2022-10-30T14:04:12.224Z,8.33
2022-10-30T14:06:53.504Z,11.30
2022-10-30T14:09:45.508Z,16.58
2022-10-30T14:12:54.105Z,13.05
2022-10-30T14:15:43.001Z,11.65
2022-10-30T14:18:12.868Z,10.98
2022-10-30T14:20:41.322Z,8.57
2022-10-30T14:23:19.995Z,10.70
2022-10-30T14:26:05.471Z,12.85
2022-10-30T14:28:35.725Z,12.00
2022-10-30T14:31:08.808Z,10.55
2022-10-30T14:33:55.695Z,9.60
2022-10-30T14:36:26.983Z,11.75
2022-10-30T14:39:00.854Z,8.90
2022-10-30T14:41:32.099Z,12.13
2022-10-30T14:44:13.777Z,15.73
2022-10-30T14:47:09.834Z,8.48
2022-10-30T14:49:42.179Z,9.00
2022-10-30T14:55:24.602Z,13.73
2022-10-30T14:58:21.034Z,10.93
2022-10-30T15:00:48.345Z,10.18
2022-10-30T15:03:52.528Z,7.75
2022-10-30T15:06:42.555Z,12.48
2022-10-30T15:09:16.948Z,9.25
2022-10-30T15:11:52.688Z,11.13
2022-10-30T15:14:52.547Z,12.25
2022-10-30T15:17:40.045Z,15.23
2022-10-30T15:20:14.868Z,15.50
2022-10-30T15:22:42.223Z,13.10
2022-10-30T15:25:44.152Z,14.52
2022-10-30T15:28:18.711Z,11.63
2022-10-30T15:31:04.154Z,17.35
2022-10-30T15:33:32.504Z,16.08
2022-10-30T15:36:00.007Z,11.90
2022-10-30T15:38:26.980Z,16.63
2022-10-30T15:40:59.665Z,12.05
2022-10-30T15:43:37.410Z,9.23
2022-10-30T15:46:10.128Z,14.18
2022-10-30T15:48:41.020Z,12.23
2022-10-30T15:51:16.806Z,12.13
2022-10-30T15:53:43.561Z,16.85
2022-10-30T15:56:29.155Z,11.70
2022-10-30T15:59:06.756Z,13.50
2022-10-30T16:01:54.887Z,13.57
2022-10-30T16:04:33.171Z,11.40
2022-10-30T16:07:04.397Z,13.18
2022-10-30T16:09:31.204Z,13.00
2022-10-30T16:12:00.494Z,17.83
2022-10-30T16:14:34.458Z,11.88
2022-10-30T16:17:01.844Z,11.15
2022-10-30T16:19:31.405Z,14.02
2022-10-30T16:21:59.436Z,15.73
2022-10-30T16:24:36.023Z,16.52
2022-10-30T16:27:14.114Z,14.27
2022-10-30T16:29:41.916Z,14.25
2022-10-30T16:34:45.632Z,15.85
2022-10-30T16:37:20.788Z,17.52
2022-10-30T16:39:50.717Z,18.67
2022-10-30T16:42:26.897Z,16.40
2022-10-30T16:45:32.188Z,18.27
2022-10-30T16:48:09.322Z,25.95
2022-10-30T16:50:38.441Z,17.02
2022-10-30T16:53:18.303Z,17.48
2022-10-30T16:55:45.368Z,15.82
2022-10-30T16:58:14.755Z,14.57
2022-10-30T17:00:48.224Z,16.77
2022-10-30T17:03:15.078Z,27.65
2022-10-30T17:05:47.145Z,14.82
2022-10-30T17:08:16.752Z,18.52
2022-10-30T17:10:43.499Z,21.02
2022-10-30T17:13:33.483Z,15.85
2022-10-30T17:16:12.523Z,17.77
2022-10-30T17:18:39.289Z,14.50
2022-10-30T17:21:11.849Z,18.52
2022-10-30T17:23:48.600Z,18.77
2022-10-30T17:26:15.857Z,21.23
2022-10-30T17:28:43.282Z,25.50
2022-10-30T17:31:42.764Z,20.80
2022-10-30T17:34:14.312Z,24.45
2022-10-30T17:36:41.647Z,17.92
2022-10-30T17:39:09.209Z,23.90
2022-10-30T17:41:36.778Z,21.83
2022-10-30T17:44:05.152Z,16.90
2022-10-30T17:46:32.156Z,22.83
2022-10-30T17:48:59.816Z,20.10
2022-10-30T17:51:26.844Z,17.50
2022-10-30T17:53:53.703Z,17.92
2022-10-30T17:56:27.722Z,20.85
2022-10-30T17:58:55.259Z,27.17
2022-10-30T18:01:24.869Z,22.42
2022-10-30T18:03:54.969Z,22.23
2022-10-30T18:06:24.914Z,18.13
2022-10-30T18:08:53.272Z,21.88
2022-10-30T18:11:22.190Z,22.17
2022-10-30T18:13:50.495Z,24.13
2022-10-30T18:16:19.140Z,18.63
2022-10-30T18:18:46.034Z,21.08
2022-10-30T18:21:23.181Z,21.45
2022-10-30T18:23:52.712Z,18.52
2022-10-30T18:26:23.233Z,20.27
2022-10-30T18:28:50.108Z,22.83
2022-10-30T18:31:19.564Z,17.52
2022-10-30T18:33:47.346Z,24.95
2022-10-30T18:36:24.953Z,20.27
2022-10-30T18:38:52.858Z,25.58
2022-10-30T18:41:33.450Z,20.65
2022-10-30T18:44:00.594Z,23.83
2022-10-30T18:46:29.466Z,27.60
2022-10-30T18:48:56.338Z,21.13
2022-10-30T18:51:25.705Z,21.55
2022-10-30T18:53:52.782Z,22.58
2022-10-30T18:56:24.791Z,19.55
2022-10-30T18:58:56.428Z,25.57
2022-10-30T19:01:28.645Z,20.05
2022-10-30T19:03:55.539Z,27.23
2022-10-30T19:06:24.164Z,23.27
2022-10-30T19:08:51.041Z,22.17
2022-10-30T19:11:24.660Z,23.70
2022-10-30T19:13:53.406Z,26.77
2022-10-30T19:16:20.820Z,20.17
2022-10-30T19:18:48.590Z,20.17
2022-10-30T19:21:18.430Z,22.55
2022-10-30T19:23:45.750Z,20.80
2022-10-30T19:26:17.130Z,27.35
2022-10-30T19:28:44.897Z,23.02
2022-10-30T19:31:15.037Z,20.13
2022-10-30T19:33:42.248Z,30.45
2022-10-30T19:36:27.501Z,29.20
2022-10-30T19:38:54.727Z,45.30
2022-10-30T19:41:21.698Z,43.80
2022-10-30T19:43:48.519Z,38.13
2022-10-30T19:46:15.505Z,31.48
2022-10-30T19:48:59.533Z,35.58
2022-10-30T19:51:28.165Z,29.00
2022-10-30T19:53:54.990Z,25.75
2022-10-30T19:56:22.438Z,33.10
2022-10-30T19:58:49.736Z,25.40
2022-10-30T20:01:17.104Z,32.28
2022-10-30T20:03:44.226Z,27.02
2022-10-30T20:06:12.490Z,29.45
2022-10-30T20:08:39.596Z,32.40
2022-10-30T20:11:06.506Z,26.15
2022-10-30T20:13:33.765Z,22.95
2022-10-30T20:16:04.673Z,20.67
2022-10-30T20:18:34.830Z,20.23
2022-10-30T20:21:04.179Z,17.10
2022-10-30T20:23:31.198Z,22.30
2022-10-30T20:26:00.929Z,16.60
2022-10-30T20:28:36.540Z,18.50
2022-10-30T20:31:04.236Z,15.63
2022-10-30T20:33:31.105Z,16.77
2022-10-30T20:35:58.090Z,16.50
2022-10-30T20:38:29.070Z,17.73
2022-10-30T20:40:56.649Z,16.67
2022-10-30T20:43:37.773Z,20.08
2022-10-30T20:46:07.080Z,19.92
2022-10-30T20:48:33.845Z,17.05
2022-10-30T20:51:01.814Z,17.27
2022-10-30T20:53:29.971Z,17.52
2022-10-30T20:55:56.846Z,20.92
2022-10-30T20:58:24.247Z,17.80
2022-10-30T21:00:53.381Z,17.38
2022-10-30T21:03:20.175Z,17.33
2022-10-30T21:05:53.765Z,16.38
2022-10-30T21:08:20.504Z,14.35
2022-10-30T21:10:47.217Z,16.38
2022-10-30T21:13:13.980Z,17.42
2022-10-30T21:15:42.600Z,13.50
2022-10-30T21:18:11.191Z,11.70
2022-10-30T21:20:38.323Z,18.90
2022-10-30T21:23:06.246Z,15.25
2022-10-30T21:25:33.236Z,15.23
2022-10-30T21:28:00.924Z,11.95
2022-10-30T21:30:28.593Z,11.60
2022-10-30T21:32:55.393Z,14.52
2022-10-30T21:35:22.198Z,16.58
2022-10-30T21:37:49.149Z,14.48
2022-10-30T21:40:15.988Z,17.70
2022-10-30T21:42:42.737Z,14.45
2022-10-30T21:45:10.310Z,21.42
2022-10-30T21:47:37.075Z,16.45
2022-10-30T21:50:07.565Z,13.23
2022-10-30T21:52:36.225Z,21.23
2022-10-30T21:55:03.158Z,21.83
2022-10-30T21:57:30.173Z,15.88
2022-10-30T21:59:58.930Z,13.57
2022-10-30T22:02:28.536Z,16.50
2022-10-30T22:04:55.244Z,16.27
2022-10-30T22:07:22.037Z,16.33
2022-10-30T22:09:48.822Z,15.95
2022-10-30T22:12:15.640Z,15.60
2022-10-30T22:14:42.431Z,14.20
2022-10-30T22:17:09.543Z,15.65
2022-10-30T22:19:36.324Z,17.90
2022-10-30T22:22:03.160Z,14.02
2022-10-30T22:24:29.899Z,13.38
2022-10-30T22:26:56.650Z,13.07
2022-10-30T22:29:23.400Z,14.65
2022-10-30T22:31:50.280Z,15.23
2022-10-30T22:34:17.043Z,14.95
2022-10-30T22:36:43.865Z,21.13
2022-10-30T22:39:13.300Z,18.77
2022-10-30T22:41:40.936Z,14.90
2022-10-30T22:44:11.684Z,21.27
2022-10-30T22:46:39.139Z,14.68
2022-10-30T22:49:06.851Z,16.08
2022-10-30T22:51:35.401Z,17.83
2022-10-30T22:54:04.199Z,13.48
2022-10-30T22:56:33.956Z,15.38
2022-10-30T22:59:14.546Z,19.50
2022-10-30T23:01:41.986Z,16.73
2022-10-30T23:04:11.101Z,14.63
2022-10-30T23:06:38.258Z,17.20
2022-10-30T23:09:08.587Z,17.48
2022-10-30T23:11:35.820Z,23.52
2022-10-30T23:14:02.596Z,19.45
2022-10-30T23:16:29.615Z,16.02
2022-10-30T23:18:58.537Z,15.85
2022-10-30T23:21:28.008Z,15.38
2022-10-30T23:23:55.568Z,21.60
2022-10-30T23:26:24.801Z,19.27
2022-10-30T23:28:53.929Z,21.45
2022-10-30T23:31:29.466Z,22.42
2022-10-30T23:33:58.739Z,20.90
2022-10-30T23:36:25.792Z,26.70
2022-10-30T23:39:03.906Z,34.90
2022-10-30T23:41:32.132Z,30.13
2022-10-30T23:44:01.976Z,33.90
2022-10-30T23:46:29.196Z,24.52
2022-10-30T23:48:55.950Z,25.42
2022-10-30T23:51:23.361Z,30.10
2022-10-30T23:53:50.654Z,31.33
2022-10-30T23:56:18.364Z,26.27
2022-10-30T23:58:47.047Z,31.00
